Thompson, Canada
Current Conditions -  °F | °C
As of 5:00 PM on Wednesday 22 Oct 2014 (Local Time) from CYTH Reporting Station
Overcast Overcast  
Wind Chill: 50°   Ceiling: 18000
Heat Index: 50°   Visibility: 15mi
Dew Point: 43°   Wind: 3mph
Humidity: 76%   Direction: 30°NNE
Pressure: 29.66"   Gusts: NA
Location:  55.74°N, 97.85°W
Report Text: CYTH 222200Z 03003KT 15SM SCT120 BKN180 OVC220 10/06 A2966 RMKAC4AC2CI2 ACC ASOCTD SW SLP055
Loading
Personal Weather Stations






























Interactive Weather Map
Tropical Storm Tracking
New forecast layout! Learn more

10-Day Weather Forecast

Advertisements
Track Severe Weather on mobile